Havelock, Nebraska
Current Conditions -  °F | °C
As of 4:54 AM on Wednesday 26 Nov 2014 (Local Time) from KLNK Reporting Station
Overcast Overcast  
Wind Chill: 28°   Ceiling: 7000
Heat Index: 37°   Visibility: 10mi
Dew Point: 29°   Wind: 15mph
Humidity: 73%   Direction: 300°WNW
Pressure: 29.91"   Gusts: NA
Location:  40.8505°N, 96.6337°W
Report Text: KLNK 261054Z 30013KT 10SM FEW031 OVC070 03/M02 A2991 RMK AO2 SLP135 T00281017
Loading
Personal Weather Stations






























Interactive Weather Map New forecast layout! Learn more

10-Day Weather Forecast

Advertisements
Track Severe Weather on mobile